createdAt,value
2022-10-04T00:01:25.332Z,102072.66
2022-10-04T00:04:39.415Z,102060.47
2022-10-04T00:07:11.466Z,102067.28
2022-10-04T00:09:54.748Z,102064.00
2022-10-04T00:12:25.148Z,102074.19
2022-10-04T00:14:53.661Z,102068.53
2022-10-04T00:17:26.818Z,102063.53
2022-10-04T00:19:54.828Z,102062.34
2022-10-04T00:22:32.419Z,102059.66
2022-10-04T00:25:08.334Z,102056.22
2022-10-04T00:27:36.066Z,102060.59
2022-10-04T00:30:02.444Z,102054.91
2022-10-04T00:32:46.551Z,102054.75
2022-10-04T00:35:25.092Z,102046.91
2022-10-04T00:37:59.258Z,102041.06
2022-10-04T00:40:34.373Z,102033.31
2022-10-04T00:43:15.523Z,102034.28
2022-10-04T00:45:46.283Z,102033.31
2022-10-04T00:48:33.264Z,102035.69
2022-10-04T00:51:12.364Z,102024.97
2022-10-04T00:53:53.607Z,102034.09
2022-10-04T00:56:28.374Z,102036.69
2022-10-04T00:58:57.643Z,102026.69
2022-10-04T01:01:26.566Z,102033.19
2022-10-04T01:03:54.112Z,102031.00
2022-10-04T01:06:21.497Z,102026.69
2022-10-04T01:08:52.903Z,102017.69
2022-10-04T01:11:35.935Z,102011.09
2022-10-04T01:14:12.854Z,102016.34
2022-10-04T01:16:39.520Z,102009.66
2022-10-04T01:19:24.577Z,102008.75
2022-10-04T01:22:11.944Z,102010.22
2022-10-04T01:24:43.443Z,102010.75
2022-10-04T01:27:41.943Z,102003.47
2022-10-04T01:30:14.646Z,101992.00
2022-10-04T01:32:41.108Z,101982.44
2022-10-04T01:35:10.318Z,101977.13
2022-10-04T01:37:37.265Z,101992.00
2022-10-04T01:40:04.098Z,101982.88
2022-10-04T01:42:39.443Z,101972.25
2022-10-04T01:45:26.989Z,101973.22
2022-10-04T01:47:55.625Z,101971.53
2022-10-04T01:50:47.151Z,101967.88
2022-10-04T01:53:19.377Z,101971.06
2022-10-04T01:55:50.844Z,101956.69
2022-10-04T01:58:23.977Z,101960.81
2022-10-04T02:01:01.720Z,101960.13
2022-10-04T02:03:36.991Z,101954.81
2022-10-04T02:06:05.936Z,101959.47
2022-10-04T02:08:33.869Z,101954.28
2022-10-04T02:11:01.434Z,101954.28
2022-10-04T02:13:32.613Z,101952.16
2022-10-04T02:15:59.334Z,101952.03
2022-10-04T02:18:28.303Z,101952.19
2022-10-04T02:20:55.115Z,101945.72
2022-10-04T02:23:22.844Z,101939.91
2022-10-04T02:25:50.214Z,101938.41
2022-10-04T02:28:18.702Z,101928.44
2022-10-04T02:31:07.965Z,101936.09
2022-10-04T02:33:39.416Z,101941.06
2022-10-04T02:36:07.108Z,101924.78
2022-10-04T02:38:35.646Z,101927.28
2022-10-04T02:41:05.200Z,101924.44
2022-10-04T02:43:49.470Z,101923.28
2022-10-04T02:46:25.721Z,101916.31
2022-10-04T02:48:56.803Z,101916.47
2022-10-04T02:51:33.333Z,101920.47
2022-10-04T02:54:28.520Z,101921.63
2022-10-04T02:56:56.274Z,101913.66
2022-10-04T02:59:22.734Z,101915.47
2022-10-04T03:01:58.055Z,101908.16
2022-10-04T03:04:37.885Z,101913.81
2022-10-04T03:07:06.852Z,101918.13
2022-10-04T03:09:35.268Z,101912.16
2022-10-04T03:12:03.329Z,101911.31
2022-10-04T03:14:30.642Z,101906.84
2022-10-04T03:17:00.760Z,101891.53
2022-10-04T03:19:29.638Z,101879.19
2022-10-04T03:22:01.960Z,101867.41
2022-10-04T03:24:31.828Z,101870.88
2022-10-04T03:27:00.432Z,101876.41
2022-10-04T03:29:28.259Z,101880.22
2022-10-04T03:31:58.982Z,101882.69
2022-10-04T03:34:28.741Z,101889.84
2022-10-04T03:36:58.640Z,101882.72
2022-10-04T03:39:32.619Z,101886.84
2022-10-04T03:42:04.390Z,101877.03
2022-10-04T03:44:31.856Z,101888.19
2022-10-04T03:46:59.647Z,101885.38
2022-10-04T03:49:32.721Z,101875.22
2022-10-04T03:51:59.940Z,101878.88
2022-10-04T03:54:27.971Z,101874.72
2022-10-04T03:56:55.490Z,101888.19
2022-10-04T03:59:24.358Z,101886.19
2022-10-04T04:02:18.709Z,101877.22
2022-10-04T04:04:52.553Z,101887.19
2022-10-04T04:07:28.599Z,101889.38
2022-10-04T04:10:16.669Z,101883.53
2022-10-04T04:12:47.792Z,101869.22
2022-10-04T04:15:14.832Z,101882.69
2022-10-04T04:17:46.241Z,101877.19
2022-10-04T04:20:21.238Z,101870.53
2022-10-04T04:22:59.052Z,101879.19
2022-10-04T04:25:26.871Z,101875.84
2022-10-04T04:28:26.725Z,101875.97
2022-10-04T04:30:57.918Z,101875.34
2022-10-04T04:33:30.016Z,101873.31
2022-10-04T04:36:03.842Z,101873.31
2022-10-04T04:38:30.367Z,101867.84
2022-10-04T04:40:57.341Z,101868.19
2022-10-04T04:43:27.776Z,101852.88
2022-10-04T04:46:14.903Z,101855.03
2022-10-04T04:48:44.306Z,101850.66
2022-10-04T04:51:21.195Z,101844.16
2022-10-04T04:53:48.504Z,101836.34
2022-10-04T04:56:21.412Z,101826.19
2022-10-04T04:58:49.106Z,101823.88
2022-10-04T05:01:24.322Z,101812.72
2022-10-04T05:04:12.414Z,101814.56
2022-10-04T05:06:43.496Z,101819.72
2022-10-04T05:09:23.106Z,101820.03
2022-10-04T05:11:51.432Z,101809.53
2022-10-04T05:14:18.026Z,101818.03
2022-10-04T05:16:53.034Z,101808.06
2022-10-04T05:19:35.586Z,101807.91
2022-10-04T05:22:07.757Z,101810.72
2022-10-04T05:24:37.500Z,101806.69
2022-10-04T05:27:06.037Z,101810.19
2022-10-04T05:29:36.212Z,101805.84
2022-10-04T05:32:44.414Z,101807.31
2022-10-04T05:35:16.632Z,101808.81
2022-10-04T05:38:03.442Z,101811.47
2022-10-04T05:40:36.044Z,101813.63
2022-10-04T05:43:03.084Z,101817.94
2022-10-04T05:45:31.099Z,101818.59
2022-10-04T05:48:01.482Z,101814.75
2022-10-04T05:50:35.014Z,101811.06
2022-10-04T05:53:22.671Z,101815.22
2022-10-04T05:56:01.608Z,101810.03
2022-10-04T05:58:44.278Z,101821.69
2022-10-04T06:01:24.315Z,101818.69
2022-10-04T06:04:28.372Z,101818.69
2022-10-04T06:07:34.878Z,101815.66
2022-10-04T06:10:41.067Z,101816.69
2022-10-04T06:13:21.041Z,101813.66
2022-10-04T06:16:11.957Z,101818.00
2022-10-04T06:18:58.379Z,101812.66
2022-10-04T06:21:49.684Z,101810.63
2022-10-04T06:24:26.915Z,101817.63
2022-10-04T06:27:17.624Z,101812.97
2022-10-04T06:29:49.467Z,101818.94
2022-10-04T06:32:35.361Z,101825.94
2022-10-04T06:35:23.400Z,101822.91
2022-10-04T06:38:20.105Z,101818.59
2022-10-04T06:41:07.875Z,101809.25
2022-10-04T06:43:41.410Z,101822.56
2022-10-04T06:46:44.952Z,101823.56
2022-10-04T06:49:15.651Z,101828.38
2022-10-04T06:52:01.840Z,101829.53
2022-10-04T06:54:47.104Z,101820.53
2022-10-04T06:57:33.051Z,101825.50
2022-10-04T07:00:21.576Z,101828.00
2022-10-04T07:02:50.354Z,101818.66
2022-10-04T07:05:30.654Z,101819.94
2022-10-04T07:08:36.888Z,101829.44
2022-10-04T07:11:13.637Z,101824.59
2022-10-04T07:13:45.963Z,101818.72
2022-10-04T07:16:43.196Z,101826.34
2022-10-04T07:19:36.578Z,101820.47
2022-10-04T07:22:12.147Z,101822.63
2022-10-04T07:25:09.179Z,101824.25
2022-10-04T07:27:47.327Z,101821.44
2022-10-04T07:30:16.316Z,101824.22
2022-10-04T07:32:47.111Z,101825.88
2022-10-04T07:35:35.334Z,101823.03
2022-10-04T07:38:13.810Z,101817.81
2022-10-04T07:40:59.266Z,101823.16
2022-10-04T07:43:30.144Z,101826.44
2022-10-04T07:46:37.232Z,101814.22
2022-10-04T07:49:03.799Z,101819.19
2022-10-04T07:51:40.040Z,101824.16
2022-10-04T07:54:35.920Z,101831.63
2022-10-04T07:57:12.018Z,101820.63
2022-10-04T07:59:56.287Z,101829.91
2022-10-04T08:03:08.351Z,101832.69
2022-10-04T08:05:41.484Z,101838.50
2022-10-04T08:08:14.109Z,101834.09
2022-10-04T08:10:55.322Z,101836.94
2022-10-04T08:13:42.714Z,101837.03
2022-10-04T08:16:21.379Z,101844.69
2022-10-04T08:19:06.382Z,101848.28
2022-10-04T08:21:44.030Z,101846.31
2022-10-04T08:24:24.845Z,101843.09
2022-10-04T08:27:04.281Z,101833.34
2022-10-04T08:29:44.690Z,101834.75
2022-10-04T08:32:23.274Z,101839.72
2022-10-04T08:35:17.533Z,101830.38
2022-10-04T08:37:43.855Z,101830.22
2022-10-04T08:40:47.015Z,101826.09
2022-10-04T08:43:43.134Z,101832.13
2022-10-04T08:46:24.851Z,101830.34
2022-10-04T08:48:51.312Z,101825.25
2022-10-04T08:51:55.298Z,101824.13
2022-10-04T08:54:50.401Z,101815.25
2022-10-04T08:57:50.624Z,101817.19
2022-10-04T09:00:35.481Z,101819.78
2022-10-04T09:03:26.584Z,101809.16
2022-10-04T09:06:06.402Z,101811.88
2022-10-04T09:09:25.661Z,101804.88
2022-10-04T09:12:20.139Z,101806.16
2022-10-04T09:15:17.066Z,101800.25
2022-10-04T09:17:53.591Z,101788.91
2022-10-04T09:20:38.483Z,101789.78
2022-10-04T09:23:37.233Z,101790.63
2022-10-04T09:26:33.145Z,101780.97
2022-10-04T09:29:24.514Z,101794.09
2022-10-04T09:32:19.100Z,101798.44
2022-10-04T09:35:07.311Z,101803.41
2022-10-04T09:37:58.842Z,101795.00
2022-10-04T09:40:28.922Z,101794.84
2022-10-04T09:43:12.093Z,101793.00
2022-10-04T09:45:59.333Z,101777.91
2022-10-04T09:49:10.764Z,101786.59
2022-10-04T09:52:15.380Z,101777.97
2022-10-04T09:55:06.095Z,101774.22
2022-10-04T09:57:58.058Z,101785.19
2022-10-04T10:00:28.602Z,101777.53
2022-10-04T10:03:20.501Z,101778.00
2022-10-04T10:06:29.519Z,101783.41
2022-10-04T10:09:07.606Z,101771.38
2022-10-04T10:12:10.471Z,101775.94
2022-10-04T10:15:01.142Z,101785.44
2022-10-04T10:17:40.165Z,101782.16
2022-10-04T10:20:48.096Z,101773.44
2022-10-04T10:23:35.469Z,101791.16
2022-10-04T10:26:29.544Z,101775.88
2022-10-04T10:29:37.639Z,101786.25
2022-10-04T10:32:15.190Z,101781.03
2022-10-04T10:35:24.606Z,101766.97
2022-10-04T10:37:54.104Z,101776.06
2022-10-04T10:40:45.329Z,101783.28
2022-10-04T10:43:52.471Z,101785.19
2022-10-04T10:46:58.406Z,101782.91
2022-10-04T10:49:40.808Z,101773.81
2022-10-04T10:52:13.198Z,101763.88
2022-10-04T10:55:01.150Z,101766.13
2022-10-04T10:58:09.153Z,101772.34
2022-10-04T11:00:44.707Z,101759.16
2022-10-04T11:03:40.252Z,101747.78
2022-10-04T11:06:22.632Z,101747.16
2022-10-04T11:09:40.862Z,101746.72
2022-10-04T11:12:18.670Z,101740.06
2022-10-04T11:15:15.117Z,101723.13
2022-10-04T11:18:08.411Z,101709.13
2022-10-04T11:21:03.622Z,101702.28
2022-10-04T11:23:58.171Z,101727.31
2022-10-04T11:26:58.704Z,101722.34
2022-10-04T11:29:41.324Z,101726.06
2022-10-04T11:32:19.255Z,101725.00
2022-10-04T11:35:07.041Z,101715.09
2022-10-04T11:38:07.750Z,101728.13
2022-10-04T11:40:40.250Z,101724.41
2022-10-04T11:43:32.703Z,101728.28
2022-10-04T11:46:20.969Z,101735.72
2022-10-04T11:49:10.062Z,101739.88
2022-10-04T11:52:08.842Z,101741.28
2022-10-04T11:54:47.821Z,101737.88
2022-10-04T11:57:31.182Z,101728.59
2022-10-04T12:00:18.142Z,101736.81
2022-10-04T12:03:19.396Z,101741.03
2022-10-04T12:05:55.570Z,101731.56
2022-10-04T12:08:43.700Z,101730.09
2022-10-04T12:11:16.111Z,101720.88
2022-10-04T12:14:01.736Z,101724.56
2022-10-04T12:17:08.868Z,101725.38
2022-10-04T12:19:54.164Z,101732.75
2022-10-04T12:22:48.833Z,101733.72
2022-10-04T12:25:42.380Z,101711.63
2022-10-04T12:28:30.133Z,101691.09
2022-10-04T12:31:00.338Z,101659.69
2022-10-04T12:33:52.168Z,101663.44
2022-10-04T12:36:33.080Z,101666.13
2022-10-04T12:39:44.521Z,101673.31
2022-10-04T12:42:32.707Z,101653.19
2022-10-04T12:45:25.367Z,101667.94
2022-10-04T12:48:14.782Z,101676.91
2022-10-04T12:51:15.895Z,101660.03
2022-10-04T12:54:12.349Z,101667.59
2022-10-04T12:56:46.790Z,101662.66
2022-10-04T12:59:45.183Z,101666.53
2022-10-04T13:02:47.177Z,101663.81
2022-10-04T13:05:25.599Z,101652.88
2022-10-04T13:08:04.697Z,101647.56
2022-10-04T13:10:49.102Z,101656.16
2022-10-04T13:13:45.760Z,101659.06
2022-10-04T13:19:37.256Z,101648.56
2022-10-04T13:22:37.610Z,101651.44
2022-10-04T13:25:26.527Z,101621.88
2022-10-04T13:28:23.635Z,101618.38
2022-10-04T13:31:09.349Z,101619.53
2022-10-04T13:34:00.565Z,101611.06
2022-10-04T13:36:59.452Z,101607.97
2022-10-04T13:39:30.493Z,101616.53
2022-10-04T13:42:23.068Z,101620.56
2022-10-04T13:45:18.341Z,101631.97
2022-10-04T13:48:22.021Z,101617.44
2022-10-04T13:51:30.784Z,101615.34
2022-10-04T13:54:40.855Z,101612.25
2022-10-04T13:57:18.448Z,101605.09
2022-10-04T14:00:06.998Z,101640.50
2022-10-04T14:03:04.081Z,101635.41
2022-10-04T14:06:06.173Z,101630.84
2022-10-04T14:09:09.245Z,101620.22
2022-10-04T14:12:04.280Z,101630.78
2022-10-04T14:15:12.339Z,101640.41
2022-10-04T14:17:56.696Z,101645.81
2022-10-04T14:20:47.922Z,101631.06
2022-10-04T14:23:35.315Z,101629.59
2022-10-04T14:26:10.747Z,101635.66
2022-10-04T14:28:45.516Z,101653.00
2022-10-04T14:31:36.834Z,101645.75
2022-10-04T14:34:34.774Z,101649.69
2022-10-04T14:37:20.276Z,101651.75
2022-10-04T14:40:13.788Z,101655.25
2022-10-04T14:42:46.723Z,101637.72
2022-10-04T14:45:35.005Z,101640.19
2022-10-04T14:48:24.782Z,101626.94
2022-10-04T14:51:22.356Z,101619.00
2022-10-04T14:53:56.427Z,101622.47
2022-10-04T14:56:43.241Z,101614.03
2022-10-04T14:59:20.663Z,101613.06
2022-10-04T15:02:24.904Z,101599.03
2022-10-04T15:04:54.466Z,101594.72
2022-10-04T15:07:24.423Z,101583.38
2022-10-04T15:10:04.002Z,101585.25
2022-10-04T15:13:16.850Z,101591.91
2022-10-04T15:15:58.720Z,101589.84
2022-10-04T15:18:47.437Z,101588.38
2022-10-04T15:21:33.756Z,101578.03
2022-10-04T15:24:15.898Z,101585.28
2022-10-04T15:27:33.016Z,101597.66
2022-10-04T15:30:22.246Z,101599.69
2022-10-04T15:33:11.643Z,101597.03
2022-10-04T15:35:47.004Z,101601.94
2022-10-04T15:38:25.841Z,101598.41
2022-10-04T15:41:13.592Z,101599.00
2022-10-04T15:43:44.431Z,101598.00
2022-10-04T15:46:45.225Z,101601.31
2022-10-04T15:49:28.441Z,101597.56
2022-10-04T15:52:32.742Z,101591.53
2022-10-04T15:55:05.330Z,101591.75
2022-10-04T15:57:56.720Z,101594.81
2022-10-04T16:00:32.008Z,101593.75
2022-10-04T16:03:41.190Z,101588.41
2022-10-04T16:06:27.243Z,101577.69
2022-10-04T16:09:14.450Z,101574.13
2022-10-04T16:11:55.308Z,101581.28
2022-10-04T16:14:41.203Z,101567.88
2022-10-04T16:17:31.222Z,101558.34
2022-10-04T16:20:02.105Z,101539.75
2022-10-04T16:22:33.660Z,101542.47
2022-10-04T16:25:26.114Z,101540.56
2022-10-04T16:27:58.482Z,101550.47
2022-10-04T16:30:30.824Z,101541.78
2022-10-04T16:33:18.965Z,101546.91
2022-10-04T16:36:05.688Z,101568.63
2022-10-04T16:38:35.182Z,101551.97
2022-10-04T16:41:10.081Z,101557.75
2022-10-04T16:43:48.664Z,101555.66
2022-10-04T16:46:15.245Z,101552.13
2022-10-04T16:48:57.832Z,101549.22
2022-10-04T16:51:47.348Z,101552.41
2022-10-04T16:54:32.016Z,101544.03
2022-10-04T16:56:59.845Z,101533.91
2022-10-04T16:59:38.775Z,101528.09
2022-10-04T17:02:37.954Z,101539.25
2022-10-04T17:05:41.939Z,101525.81
2022-10-04T17:08:17.318Z,101538.13
2022-10-04T17:10:49.856Z,101539.53
2022-10-04T17:14:01.392Z,101546.34
2022-10-04T17:16:41.354Z,101550.16
2022-10-04T17:19:34.612Z,101545.78
2022-10-04T17:22:22.885Z,101545.13
2022-10-04T17:24:59.452Z,101533.78
2022-10-04T17:27:47.639Z,101521.88
2022-10-04T17:30:48.132Z,101509.00
2022-10-04T17:33:24.215Z,101494.28
2022-10-04T17:35:57.446Z,101480.09
2022-10-04T17:38:48.679Z,101486.72
2022-10-04T17:41:27.122Z,101500.84
2022-10-04T17:44:34.145Z,101518.53
2022-10-04T17:47:14.881Z,101507.00
2022-10-04T17:50:21.795Z,101506.00
2022-10-04T17:53:12.670Z,101503.69
2022-10-04T17:55:50.434Z,101495.50
2022-10-04T17:58:25.991Z,101500.25
2022-10-04T18:01:07.861Z,101507.72
2022-10-04T18:03:41.100Z,101513.13
2022-10-04T18:06:32.186Z,101516.06
2022-10-04T18:09:03.587Z,101515.88
2022-10-04T18:11:42.007Z,101532.53
2022-10-04T18:14:58.154Z,101547.97
2022-10-04T18:17:44.839Z,101544.38
2022-10-04T18:20:37.842Z,101532.69
2022-10-04T18:23:28.092Z,101519.09
2022-10-04T18:25:58.535Z,101519.94
2022-10-04T18:28:26.028Z,101510.50
2022-10-04T18:30:59.238Z,101507.22
2022-10-04T18:33:35.633Z,101503.72
2022-10-04T18:36:24.916Z,101495.53
2022-10-04T18:39:14.022Z,101502.78
2022-10-04T18:41:51.491Z,101494.13
2022-10-04T18:44:23.397Z,101493.34
2022-10-04T18:46:56.471Z,101492.53
2022-10-04T18:49:33.624Z,101480.25
2022-10-04T18:52:13.184Z,101471.44
2022-10-04T18:54:48.522Z,101478.19
2022-10-04T18:57:34.834Z,101482.75
2022-10-04T19:00:29.179Z,101481.78
2022-10-04T19:03:22.133Z,101468.81
2022-10-04T19:05:59.022Z,101474.16
2022-10-04T19:09:02.958Z,101468.41
2022-10-04T19:11:41.572Z,101470.25
2022-10-04T19:14:32.649Z,101466.97
2022-10-04T19:17:03.362Z,101465.75
2022-10-04T19:19:46.445Z,101464.31
2022-10-04T19:22:18.345Z,101472.53
2022-10-04T19:25:06.717Z,101465.31
2022-10-04T19:27:40.621Z,101468.81
2022-10-04T19:30:22.249Z,101465.75
2022-10-04T19:32:58.229Z,101457.50
2022-10-04T19:35:24.626Z,101452.75
2022-10-04T19:38:15.296Z,101448.63
2022-10-04T19:40:54.110Z,101455.22
2022-10-04T19:43:42.366Z,101445.75
2022-10-04T19:46:35.492Z,101444.09
2022-10-04T19:49:02.827Z,101435.84
2022-10-04T19:51:44.318Z,101442.25
2022-10-04T19:54:15.999Z,101431.75
2022-10-04T19:56:49.118Z,101428.84
2022-10-04T19:59:31.023Z,101425.78
2022-10-04T20:01:57.501Z,101432.75
2022-10-04T20:04:36.098Z,101426.63
2022-10-04T20:07:05.656Z,101417.53
2022-10-04T20:09:41.040Z,101414.84
2022-10-04T20:12:30.389Z,101412.00
2022-10-04T20:15:12.918Z,101414.47
2022-10-04T20:17:41.299Z,101415.28
2022-10-04T20:20:08.004Z,101412.81
2022-10-04T20:22:49.260Z,101414.88
2022-10-04T20:25:49.720Z,101411.59
2022-10-04T20:28:28.669Z,101409.50
2022-10-04T20:31:00.188Z,101418.78
2022-10-04T20:33:32.830Z,101411.78
2022-10-04T20:36:09.639Z,101408.28
2022-10-04T20:38:44.956Z,101414.03
2022-10-04T20:41:52.818Z,101421.25
2022-10-04T20:44:45.722Z,101407.88
2022-10-04T20:47:28.939Z,101405.59
2022-10-04T20:49:57.671Z,101410.53
2022-10-04T20:52:34.983Z,101407.66
2022-10-04T20:55:01.723Z,101409.91
2022-10-04T20:57:30.293Z,101408.91
2022-10-04T20:59:57.931Z,101402.50
2022-10-04T21:02:27.844Z,101403.94
2022-10-04T21:04:57.837Z,101412.00
2022-10-04T21:07:25.631Z,101410.94
2022-10-04T21:09:56.320Z,101410.75
2022-10-04T21:12:32.516Z,101411.16
2022-10-04T21:15:17.323Z,101407.44
2022-10-04T21:18:06.009Z,101417.53
2022-10-04T21:20:48.375Z,101411.59
2022-10-04T21:23:18.918Z,101414.66
2022-10-04T21:25:45.819Z,101421.66
2022-10-04T21:28:32.009Z,101413.63
2022-10-04T21:31:00.046Z,101413.19
2022-10-04T21:33:26.532Z,101415.66
2022-10-04T21:35:53.059Z,101422.06
2022-10-04T21:38:19.557Z,101417.72
2022-10-04T21:40:46.266Z,101410.72
2022-10-04T21:43:12.800Z,101400.44
2022-10-04T21:45:39.331Z,101404.13
2022-10-04T21:48:05.800Z,101403.31
2022-10-04T21:50:32.325Z,101390.34
2022-10-04T21:52:59.686Z,101394.06
2022-10-04T21:55:26.130Z,101392.41
2022-10-04T21:57:52.596Z,101383.34
2022-10-04T22:00:19.278Z,101382.72
2022-10-04T22:02:45.865Z,101383.13
2022-10-04T22:05:12.400Z,101377.53
2022-10-04T22:07:38.863Z,101377.53
2022-10-04T22:10:05.605Z,101378.59
2022-10-04T22:12:32.069Z,101367.44
2022-10-04T22:14:59.431Z,101358.41
2022-10-04T22:17:26.047Z,101360.88
2022-10-04T22:19:53.273Z,101351.81
2022-10-04T22:22:20.543Z,101356.53
2022-10-04T22:24:47.407Z,101367.25
2022-10-04T22:27:16.154Z,101371.19
2022-10-04T22:29:42.664Z,101364.59
2022-10-04T22:32:24.832Z,101358.81
2022-10-04T22:34:52.409Z,101365.00
2022-10-04T22:37:23.423Z,101355.31
2022-10-04T22:39:53.212Z,101340.31
2022-10-04T22:42:20.726Z,101351.41
2022-10-04T22:44:47.286Z,101338.25
2022-10-04T22:47:15.095Z,101336.16
2022-10-04T22:49:44.002Z,101339.84
2022-10-04T22:52:17.357Z,101343.16
2022-10-04T22:54:45.927Z,101337.59
2022-10-04T22:57:14.461Z,101336.56
2022-10-04T22:59:49.552Z,101332.84
2022-10-04T23:02:18.078Z,101327.47
2022-10-04T23:04:51.235Z,101333.25
2022-10-04T23:07:18.312Z,101332.84
2022-10-04T23:09:45.101Z,101328.31
2022-10-04T23:12:11.629Z,101333.66
2022-10-04T23:14:39.199Z,101327.06
2022-10-04T23:17:25.102Z,101334.47
2022-10-04T23:20:01.354Z,101329.53
2022-10-04T23:22:29.230Z,101340.66
2022-10-04T23:24:56.320Z,101341.06
2022-10-04T23:27:23.184Z,101351.16
2022-10-04T23:29:57.922Z,101346.00
2022-10-04T23:32:25.455Z,101348.06
2022-10-04T23:34:56.478Z,101347.22
2022-10-04T23:37:27.718Z,101353.63
2022-10-04T23:39:54.172Z,101350.13
2022-10-04T23:42:28.783Z,101348.06
2022-10-04T23:44:57.072Z,101345.78
2022-10-04T23:47:27.396Z,101355.06
2022-10-04T23:49:53.860Z,101355.47
2022-10-04T23:52:25.429Z,101348.50
2022-10-04T23:54:53.442Z,101344.34
2022-10-04T23:57:27.890Z,101342.31
2022-10-04T23:59:54.336Z,101341.28
